createdAt,value
2024-03-07T00:03:20.493Z,12.77
2024-03-07T00:08:40.969Z,13.88
2024-03-07T00:14:01.873Z,13.15
2024-03-07T00:19:23.107Z,13.30
2024-03-07T00:24:44.085Z,12.55
2024-03-07T00:30:06.568Z,14.02
2024-03-07T00:35:27.214Z,14.07
2024-03-07T00:40:48.023Z,12.45
2024-03-07T00:46:08.709Z,13.50
2024-03-07T00:51:30.587Z,12.93
2024-03-07T00:56:51.492Z,12.45
2024-03-07T01:02:12.209Z,14.63
2024-03-07T01:07:32.837Z,14.70
2024-03-07T01:12:54.653Z,13.77
2024-03-07T01:18:15.733Z,12.93
2024-03-07T01:23:36.292Z,14.60
2024-03-07T01:29:00.361Z,15.65
2024-03-07T01:34:21.067Z,14.93
2024-03-07T01:39:41.661Z,14.02
2024-03-07T01:45:02.372Z,13.95
2024-03-07T01:50:23.132Z,13.70
2024-03-07T01:55:45.426Z,12.63
2024-03-07T02:01:06.238Z,14.07
2024-03-07T02:06:27.083Z,12.45
2024-03-07T02:11:50.898Z,13.48
2024-03-07T02:22:32.344Z,11.48
2024-03-07T02:27:52.959Z,13.13
2024-03-07T02:33:13.759Z,11.18
2024-03-07T02:38:35.704Z,11.18
2024-03-07T02:43:56.886Z,12.05
2024-03-07T02:49:17.543Z,12.45
2024-03-07T02:54:38.401Z,12.63
2024-03-07T02:59:59.015Z,11.73
2024-03-07T03:05:21.030Z,11.07
2024-03-07T03:10:42.203Z,11.13
2024-03-07T03:16:05.994Z,11.20
2024-03-07T03:21:26.883Z,12.80
2024-03-07T03:26:47.331Z,12.63
2024-03-07T03:32:08.567Z,12.35
2024-03-07T03:37:28.919Z,13.15
2024-03-07T03:42:49.916Z,13.18
2024-03-07T03:48:10.520Z,13.18
2024-03-07T03:53:31.191Z,11.07
2024-03-07T03:58:51.824Z,13.68
2024-03-07T04:04:12.343Z,12.85
2024-03-07T04:09:32.788Z,12.82
2024-03-07T04:14:55.913Z,15.07
2024-03-07T04:20:19.090Z,14.70
2024-03-07T04:25:41.156Z,14.23
2024-03-07T04:31:01.913Z,14.65
2024-03-07T04:36:22.419Z,14.55
2024-03-07T04:41:43.059Z,13.15
2024-03-07T04:47:04.926Z,14.80
2024-03-07T04:52:25.464Z,13.55
2024-03-07T04:57:46.150Z,12.75
2024-03-07T05:03:06.653Z,13.15
2024-03-07T05:08:27.666Z,12.75
2024-03-07T05:13:49.706Z,11.82
2024-03-07T05:19:10.528Z,11.38
2024-03-07T05:24:30.932Z,10.30
2024-03-07T05:29:51.845Z,9.25
2024-03-07T05:35:12.819Z,7.90
2024-03-07T05:40:34.340Z,6.85
2024-03-07T05:45:55.395Z,6.22
2024-03-07T05:51:16.009Z,5.28
2024-03-07T05:56:37.229Z,5.38
2024-03-07T06:01:57.773Z,5.13
2024-03-07T06:07:36.908Z,4.88
2024-03-07T06:13:05.865Z,4.80
2024-03-07T06:18:32.640Z,5.70
2024-03-07T06:24:00.381Z,4.43
2024-03-07T06:29:21.039Z,4.88
2024-03-07T06:34:41.727Z,5.57
2024-03-07T06:40:07.205Z,6.10
2024-03-07T06:45:27.577Z,5.32
2024-03-07T06:50:47.996Z,5.45
2024-03-07T06:56:09.003Z,5.20
2024-03-07T07:01:30.560Z,5.57
2024-03-07T07:06:50.991Z,6.00
2024-03-07T07:12:12.267Z,5.50
2024-03-07T07:17:32.948Z,5.03
2024-03-07T07:22:54.262Z,5.18
2024-03-07T07:28:14.722Z,5.95
2024-03-07T07:33:35.506Z,5.28
2024-03-07T07:38:55.972Z,5.75
2024-03-07T07:44:17.213Z,5.28
2024-03-07T07:49:39.594Z,5.50
2024-03-07T07:55:00.745Z,5.13
2024-03-07T08:00:29.628Z,5.35
2024-03-07T08:05:50.720Z,4.82
2024-03-07T08:11:13.015Z,5.60
2024-03-07T08:16:34.340Z,6.07
2024-03-07T08:21:55.237Z,4.28
2024-03-07T08:27:15.641Z,4.43
2024-03-07T08:32:39.341Z,5.05
2024-03-07T08:37:59.828Z,4.77
2024-03-07T08:43:20.359Z,4.32
2024-03-07T08:48:41.260Z,5.32
2024-03-07T08:54:02.055Z,5.22
2024-03-07T08:59:22.634Z,4.82
2024-03-07T09:04:43.121Z,5.80
2024-03-07T09:10:05.113Z,4.63
2024-03-07T09:15:25.954Z,4.97
2024-03-07T09:20:46.758Z,5.18
2024-03-07T09:26:08.432Z,5.53
2024-03-07T09:31:28.914Z,5.28
2024-03-07T09:36:50.053Z,6.85
2024-03-07T09:42:11.006Z,6.88
2024-03-07T09:47:31.989Z,7.57
2024-03-07T09:52:55.121Z,7.70
2024-03-07T09:58:20.972Z,6.30
2024-03-07T10:03:45.765Z,8.07
2024-03-07T10:14:27.744Z,6.35
2024-03-07T10:19:50.061Z,6.97
2024-03-07T10:25:11.698Z,6.68
2024-03-07T10:30:40.981Z,6.13
2024-03-07T10:36:02.813Z,6.57
2024-03-07T10:41:28.941Z,5.20
2024-03-07T10:46:54.103Z,6.18
2024-03-07T10:52:35.579Z,6.22
2024-03-07T10:58:21.261Z,6.85
2024-03-07T11:03:43.649Z,6.13
2024-03-07T11:09:11.708Z,5.88
2024-03-07T11:14:34.728Z,6.30
2024-03-07T11:19:55.254Z,6.25
2024-03-07T11:25:18.416Z,6.25
2024-03-07T11:30:39.927Z,6.13
2024-03-07T11:36:02.721Z,5.68
2024-03-07T11:41:23.863Z,9.00
2024-03-07T11:46:44.646Z,6.28
2024-03-07T11:52:05.772Z,7.70
2024-03-07T11:57:33.669Z,6.82
2024-03-07T12:02:55.566Z,7.35
2024-03-07T12:08:16.244Z,7.38
2024-03-07T12:13:37.257Z,8.40
2024-03-07T12:18:58.242Z,8.60
2024-03-07T12:24:19.176Z,8.60
2024-03-07T12:29:43.447Z,8.05
2024-03-07T12:35:05.810Z,8.98
2024-03-07T12:40:30.247Z,8.95
2024-03-07T12:45:52.680Z,9.15
2024-03-07T12:51:18.301Z,8.80
2024-03-07T12:56:40.529Z,9.70
2024-03-07T13:02:01.224Z,10.52
2024-03-07T13:07:21.824Z,10.07
2024-03-07T13:12:46.498Z,10.82
2024-03-07T13:18:08.611Z,10.38
2024-03-07T13:23:29.531Z,11.55
2024-03-07T13:28:52.155Z,12.82
2024-03-07T13:34:16.027Z,11.13
2024-03-07T13:39:37.197Z,10.63
2024-03-07T13:44:57.974Z,9.60
2024-03-07T13:50:35.669Z,12.27
2024-03-07T13:56:15.950Z,10.10
2024-03-07T14:02:12.431Z,11.05
2024-03-07T14:08:11.191Z,11.00
2024-03-07T14:13:41.122Z,9.93
2024-03-07T14:19:30.266Z,10.25
2024-03-07T14:24:54.362Z,9.57
2024-03-07T14:36:11.265Z,11.60
2024-03-07T14:41:50.022Z,10.30
2024-03-07T14:47:12.140Z,10.38
2024-03-07T14:52:32.910Z,11.00
2024-03-07T14:57:53.426Z,10.25
2024-03-07T15:03:19.794Z,9.70
2024-03-07T15:08:42.097Z,9.98
2024-03-07T15:14:02.594Z,8.70
2024-03-07T15:19:24.089Z,9.85
2024-03-07T15:24:44.606Z,9.00
2024-03-07T15:30:12.045Z,10.23
2024-03-07T15:35:33.964Z,9.23
2024-03-07T15:41:03.561Z,10.48
2024-03-07T15:46:24.080Z,8.07
2024-03-07T15:51:46.813Z,9.55
2024-03-07T15:57:07.533Z,11.32
2024-03-07T16:02:27.755Z,9.35
2024-03-07T16:07:48.367Z,9.48
2024-03-07T16:13:10.738Z,9.30
2024-03-07T16:18:31.515Z,10.00
2024-03-07T16:23:53.565Z,11.80
2024-03-07T16:29:14.397Z,11.40
2024-03-07T16:34:38.058Z,9.73
2024-03-07T16:39:58.774Z,9.53
2024-03-07T16:45:21.314Z,9.38
2024-03-07T16:50:42.627Z,10.70
2024-03-07T16:56:05.078Z,9.75
2024-03-07T17:01:25.727Z,9.98
2024-03-07T17:06:46.292Z,8.65
2024-03-07T17:12:07.163Z,9.38
2024-03-07T17:17:28.786Z,9.32
2024-03-07T17:22:49.533Z,10.50
2024-03-07T17:28:10.480Z,9.82
2024-03-07T17:33:31.180Z,10.35
2024-03-07T17:38:51.816Z,9.50
2024-03-07T17:44:18.077Z,9.98
2024-03-07T17:49:41.733Z,9.90
2024-03-07T17:55:02.331Z,7.40
2024-03-07T18:00:28.965Z,8.82
2024-03-07T18:05:54.120Z,10.27
2024-03-07T18:11:15.928Z,8.80
2024-03-07T18:16:38.609Z,10.32
2024-03-07T18:21:59.747Z,11.60
2024-03-07T18:27:21.351Z,10.18
2024-03-07T18:32:42.429Z,11.02
2024-03-07T18:38:03.737Z,9.07
2024-03-07T18:43:24.168Z,10.90
2024-03-07T18:48:44.522Z,10.57
2024-03-07T18:54:08.489Z,10.70
2024-03-07T18:59:29.099Z,12.90
2024-03-07T19:04:49.742Z,11.18
2024-03-07T19:10:18.016Z,11.32
2024-03-07T19:15:38.889Z,10.45
2024-03-07T19:20:59.479Z,10.80
2024-03-07T19:26:21.302Z,11.43
2024-03-07T19:31:41.853Z,11.65
2024-03-07T19:37:02.377Z,11.85
2024-03-07T19:42:23.230Z,12.93
2024-03-07T19:47:44.348Z,10.32
2024-03-07T19:53:14.142Z,12.23
2024-03-07T19:58:34.755Z,11.43
2024-03-07T20:03:55.496Z,11.50
2024-03-07T20:09:18.267Z,10.55
2024-03-07T20:14:40.282Z,12.45
2024-03-07T20:20:00.908Z,11.35
2024-03-07T20:25:22.348Z,12.07
2024-03-07T20:30:45.781Z,11.63
2024-03-07T20:36:09.475Z,12.40
2024-03-07T20:41:31.445Z,12.88
2024-03-07T20:46:52.430Z,11.45
2024-03-07T20:52:12.739Z,11.82
2024-03-07T20:57:34.133Z,12.50
2024-03-07T21:02:57.774Z,12.20
2024-03-07T21:08:19.212Z,11.73
2024-03-07T21:13:40.327Z,10.65
2024-03-07T21:19:01.419Z,11.77
2024-03-07T21:24:22.156Z,10.63
2024-03-07T21:29:42.731Z,12.07
2024-03-07T21:35:06.148Z,12.52
2024-03-07T21:40:26.457Z,13.20
2024-03-07T21:45:47.090Z,13.35
2024-03-07T21:51:11.095Z,13.07
2024-03-07T21:56:31.948Z,12.63
2024-03-07T22:01:52.492Z,12.50
2024-03-07T22:07:16.074Z,12.57
2024-03-07T22:12:37.739Z,11.07
2024-03-07T22:17:58.340Z,10.95
2024-03-07T22:23:18.974Z,13.57
2024-03-07T22:28:39.767Z,12.00
2024-03-07T22:34:00.284Z,13.85
2024-03-07T22:39:20.941Z,14.35
2024-03-07T22:44:43.122Z,11.85
2024-03-07T22:50:13.664Z,12.68
2024-03-07T22:55:44.080Z,10.85
2024-03-07T23:01:05.439Z,12.50
2024-03-07T23:06:35.162Z,10.43
2024-03-07T23:11:56.837Z,14.40
2024-03-07T23:17:18.314Z,12.70
2024-03-07T23:22:38.835Z,13.90
2024-03-07T23:28:01.323Z,12.07
2024-03-07T23:33:22.244Z,10.82
2024-03-07T23:38:42.936Z,12.55
2024-03-07T23:44:03.351Z,12.00
2024-03-07T23:49:25.178Z,12.18
2024-03-07T23:54:46.082Z,10.73
